createdAt,value
2022-11-08T00:02:23.496Z,2.60
2022-11-08T00:04:50.489Z,2.38
2022-11-08T00:07:36.002Z,2.40
2022-11-08T00:10:21.327Z,2.33
2022-11-08T00:13:06.852Z,2.47
2022-11-08T00:15:38.388Z,2.08
2022-11-08T00:18:06.917Z,2.38
2022-11-08T00:20:34.633Z,2.30
2022-11-08T00:23:01.955Z,2.25
2022-11-08T00:25:28.847Z,2.00
2022-11-08T00:27:55.653Z,2.40
2022-11-08T00:30:22.531Z,2.20
2022-11-08T00:32:49.454Z,2.25
2022-11-08T00:35:16.458Z,2.35
2022-11-08T00:37:43.256Z,2.25
2022-11-08T00:40:10.659Z,2.35
2022-11-08T00:42:37.488Z,1.85
2022-11-08T00:45:04.839Z,2.10
2022-11-08T00:47:31.630Z,2.22
2022-11-08T00:49:58.457Z,2.30
2022-11-08T00:52:25.213Z,2.63
2022-11-08T00:54:51.971Z,2.72
2022-11-08T00:57:18.769Z,2.10
2022-11-08T00:59:45.588Z,1.92
2022-11-08T01:02:12.448Z,2.30
2022-11-08T01:04:39.300Z,2.53
2022-11-08T01:07:06.127Z,2.55
2022-11-08T01:09:32.932Z,2.15
2022-11-08T01:11:59.757Z,2.60
2022-11-08T01:14:26.589Z,2.17
2022-11-08T01:16:53.440Z,2.05
2022-11-08T01:19:20.187Z,1.98
2022-11-08T01:21:47.208Z,1.92
2022-11-08T01:24:13.977Z,2.30
2022-11-08T01:26:40.992Z,2.35
2022-11-08T01:29:07.856Z,2.20
2022-11-08T01:31:34.649Z,2.00
2022-11-08T01:34:01.532Z,1.80
2022-11-08T01:36:29.264Z,2.00
2022-11-08T01:38:56.905Z,1.85
2022-11-08T01:41:25.530Z,2.30
2022-11-08T01:43:59.439Z,1.88
2022-11-08T01:46:40.340Z,2.58
2022-11-08T01:49:16.224Z,2.35
2022-11-08T01:51:59.923Z,2.28
2022-11-08T01:54:32.543Z,2.20
2022-11-08T01:57:03.168Z,2.20
2022-11-08T01:59:31.820Z,2.15
2022-11-08T02:01:59.249Z,2.42
2022-11-08T02:04:26.164Z,2.40
2022-11-08T02:06:53.613Z,2.08
2022-11-08T02:09:20.992Z,2.22
2022-11-08T02:11:49.325Z,1.90
2022-11-08T02:14:17.898Z,2.20
2022-11-08T02:16:44.784Z,2.03
2022-11-08T02:19:20.956Z,2.30
2022-11-08T02:21:56.276Z,1.90
2022-11-08T02:24:23.094Z,2.65
2022-11-08T02:26:52.624Z,2.15
2022-11-08T02:29:27.392Z,2.42
2022-11-08T02:31:54.879Z,1.80
2022-11-08T02:34:44.130Z,2.30
2022-11-08T02:37:12.744Z,2.38
2022-11-08T02:39:39.521Z,2.30
2022-11-08T02:42:06.413Z,2.38
2022-11-08T02:44:33.203Z,2.13
2022-11-08T02:47:00.090Z,2.03
2022-11-08T02:49:26.903Z,2.20
2022-11-08T02:51:54.026Z,1.80
2022-11-08T02:54:21.091Z,2.40
2022-11-08T02:56:48.034Z,1.92
2022-11-08T02:59:15.075Z,2.22
2022-11-08T03:01:42.313Z,2.20
2022-11-08T03:04:09.390Z,1.67
2022-11-08T03:06:36.164Z,2.25
2022-11-08T03:09:03.168Z,2.28
2022-11-08T03:11:29.932Z,2.13
2022-11-08T03:13:56.951Z,2.30
2022-11-08T03:16:23.899Z,2.30
2022-11-08T03:18:50.715Z,2.03
2022-11-08T03:21:17.491Z,2.05
2022-11-08T03:23:44.393Z,2.00
2022-11-08T03:26:11.192Z,2.40
2022-11-08T03:28:38.113Z,2.33
2022-11-08T03:31:05.015Z,1.73
2022-11-08T03:33:31.886Z,1.80
2022-11-08T03:35:59.374Z,2.05
2022-11-08T03:38:26.114Z,1.88
2022-11-08T03:40:52.854Z,1.55
2022-11-08T03:43:19.568Z,1.98
2022-11-08T03:45:46.736Z,1.85
2022-11-08T03:48:13.662Z,1.75
2022-11-08T03:50:40.445Z,1.88
2022-11-08T03:53:07.174Z,1.52
2022-11-08T03:55:33.954Z,2.00
2022-11-08T03:58:00.954Z,1.83
2022-11-08T04:00:29.039Z,1.75
2022-11-08T04:03:02.047Z,2.15
2022-11-08T04:07:56.065Z,1.75
2022-11-08T04:10:22.852Z,2.03
2022-11-08T04:13:08.047Z,1.88
2022-11-08T04:15:34.811Z,1.73
2022-11-08T04:18:20.683Z,1.95
2022-11-08T04:21:07.460Z,1.88
2022-11-08T04:23:36.241Z,1.88
2022-11-08T04:26:06.574Z,1.60
2022-11-08T04:28:36.940Z,1.90
2022-11-08T04:31:10.107Z,1.85
2022-11-08T04:33:37.021Z,1.83
2022-11-08T04:36:06.455Z,2.08
2022-11-08T04:38:33.668Z,2.20
2022-11-08T04:41:22.188Z,1.90
2022-11-08T04:43:50.021Z,2.30
2022-11-08T04:46:20.313Z,2.30
2022-11-08T04:48:49.771Z,2.28
2022-11-08T04:51:23.096Z,2.15
2022-11-08T04:53:50.522Z,2.28
2022-11-08T04:56:19.718Z,1.95
2022-11-08T04:58:54.246Z,2.42
2022-11-08T05:01:24.665Z,2.40
2022-11-08T05:03:53.014Z,2.05
2022-11-08T05:06:25.316Z,1.70
2022-11-08T05:08:53.751Z,1.95
2022-11-08T05:11:22.658Z,1.85
2022-11-08T05:13:50.856Z,2.33
2022-11-08T05:16:35.946Z,2.20
2022-11-08T05:19:02.814Z,1.98
2022-11-08T05:21:48.639Z,2.10
2022-11-08T05:24:17.589Z,2.25
2022-11-08T05:26:47.315Z,2.35
2022-11-08T05:29:15.520Z,2.25
2022-11-08T05:31:42.334Z,2.17
2022-11-08T05:34:09.105Z,2.78
2022-11-08T05:36:35.927Z,2.70
2022-11-08T05:39:03.090Z,2.80
2022-11-08T05:41:30.090Z,2.42
2022-11-08T05:43:56.957Z,2.75
2022-11-08T05:46:24.147Z,2.45
2022-11-08T05:48:51.081Z,2.50
2022-11-08T05:51:19.223Z,2.47
2022-11-08T05:53:48.493Z,2.40
2022-11-08T05:56:15.844Z,2.60
2022-11-08T05:58:42.611Z,2.92
2022-11-08T06:01:12.296Z,3.03
2022-11-08T06:03:39.683Z,2.60
2022-11-08T06:06:16.351Z,3.13
2022-11-08T06:08:47.672Z,2.92
2022-11-08T06:11:18.661Z,3.17
2022-11-08T06:13:45.420Z,2.47
2022-11-08T06:16:14.254Z,3.35
2022-11-08T06:18:41.662Z,3.10
2022-11-08T06:21:12.739Z,3.22
2022-11-08T06:23:40.001Z,2.80
2022-11-08T06:26:07.076Z,2.30
2022-11-08T06:28:34.630Z,2.40
2022-11-08T06:31:02.771Z,2.25
2022-11-08T06:33:30.050Z,2.47
2022-11-08T06:35:56.946Z,2.63
2022-11-08T06:38:24.081Z,2.88
2022-11-08T06:40:50.953Z,2.25
2022-11-08T06:43:20.308Z,2.53
2022-11-08T06:45:47.739Z,2.60
2022-11-08T06:48:14.785Z,2.60
2022-11-08T06:50:42.470Z,2.63
2022-11-08T06:53:12.597Z,3.20
2022-11-08T06:55:39.905Z,2.83
2022-11-08T06:58:07.249Z,2.92
2022-11-08T07:00:34.471Z,2.70
2022-11-08T07:03:03.383Z,3.30
2022-11-08T07:05:32.349Z,2.83
2022-11-08T07:08:00.145Z,2.92
2022-11-08T07:10:30.303Z,2.80
2022-11-08T07:13:06.499Z,2.78
2022-11-08T07:15:35.128Z,2.78
2022-11-08T07:18:03.808Z,2.80
2022-11-08T07:20:30.930Z,2.60
2022-11-08T07:22:58.222Z,2.35
2022-11-08T07:25:26.235Z,2.38
2022-11-08T07:27:57.165Z,2.92
2022-11-08T07:30:24.251Z,4.55
2022-11-08T07:32:51.661Z,3.80
2022-11-08T07:35:18.856Z,3.50
2022-11-08T07:37:45.698Z,2.70
2022-11-08T07:40:13.221Z,2.25
2022-11-08T07:43:09.633Z,2.20
2022-11-08T07:45:28.137Z,2.38
2022-11-08T07:48:09.570Z,2.33
2022-11-08T07:50:38.144Z,2.72
2022-11-08T07:53:05.023Z,2.80
2022-11-08T07:55:31.829Z,2.72
2022-11-08T07:58:03.162Z,2.50
2022-11-08T08:00:31.292Z,2.38
2022-11-08T08:03:02.636Z,2.45
2022-11-08T08:05:33.653Z,2.45
2022-11-08T08:08:01.984Z,2.50
2022-11-08T08:10:29.570Z,3.45
2022-11-08T08:12:57.119Z,3.70
2022-11-08T08:15:25.438Z,3.90
2022-11-08T08:17:52.499Z,3.50
2022-11-08T08:20:19.685Z,3.00
2022-11-08T08:22:48.578Z,2.17
2022-11-08T08:25:16.423Z,1.90
2022-11-08T08:27:51.353Z,1.98
2022-11-08T08:30:19.277Z,1.60
2022-11-08T08:32:53.421Z,2.03
2022-11-08T08:35:24.748Z,1.50
2022-11-08T08:37:51.553Z,1.83
2022-11-08T08:40:18.532Z,1.60
2022-11-08T08:42:45.704Z,1.10
2022-11-08T08:45:15.105Z,1.40
2022-11-08T08:47:42.298Z,1.20
2022-11-08T08:50:09.906Z,1.15
2022-11-08T08:52:36.844Z,1.02
2022-11-08T08:55:03.825Z,1.33
2022-11-08T08:57:30.824Z,1.20
2022-11-08T09:02:44.760Z,1.25
2022-11-08T09:05:13.442Z,1.30
2022-11-08T09:07:41.064Z,0.98
2022-11-08T09:10:09.931Z,1.20
2022-11-08T09:12:38.100Z,1.10
2022-11-08T09:15:06.099Z,1.20
2022-11-08T09:17:33.108Z,0.95
2022-11-08T09:20:00.108Z,1.17
2022-11-08T09:22:27.400Z,1.15
2022-11-08T09:24:54.478Z,1.13
2022-11-08T09:27:21.472Z,1.17
2022-11-08T09:29:48.644Z,1.13
2022-11-08T09:32:17.220Z,1.20
2022-11-08T09:34:48.656Z,1.13
2022-11-08T09:37:15.812Z,0.90
2022-11-08T09:39:43.046Z,1.20
2022-11-08T09:42:22.351Z,0.90
2022-11-08T09:44:58.277Z,1.13
2022-11-08T09:47:36.031Z,1.17
2022-11-08T09:50:12.225Z,1.25
2022-11-08T09:52:41.527Z,1.15
2022-11-08T09:55:12.042Z,1.42
2022-11-08T09:57:51.074Z,1.10
2022-11-08T10:00:18.262Z,1.35
2022-11-08T10:02:45.593Z,1.10
2022-11-08T10:05:16.011Z,1.25
2022-11-08T10:08:23.025Z,1.10
2022-11-08T10:11:13.099Z,1.35
2022-11-08T10:14:08.669Z,1.20
2022-11-08T10:16:43.508Z,1.58
2022-11-08T10:19:16.778Z,1.27
2022-11-08T10:22:00.309Z,1.05
2022-11-08T10:24:40.912Z,1.35
2022-11-08T10:27:21.209Z,1.00
2022-11-08T10:29:56.097Z,1.00
2022-11-08T10:32:25.363Z,0.98
2022-11-08T10:35:12.434Z,1.10
2022-11-08T10:37:41.973Z,1.30
2022-11-08T10:40:41.062Z,1.00
2022-11-08T10:43:20.496Z,1.30
2022-11-08T10:45:47.646Z,0.90
2022-11-08T10:48:14.859Z,0.82
2022-11-08T10:50:45.786Z,1.30
2022-11-08T10:53:24.357Z,1.17
2022-11-08T10:56:04.179Z,1.08
2022-11-08T10:58:42.101Z,1.10
2022-11-08T11:01:19.945Z,1.33
2022-11-08T11:03:49.082Z,1.42
2022-11-08T11:06:30.175Z,1.33
2022-11-08T11:09:17.326Z,1.25
2022-11-08T11:11:45.393Z,1.10
2022-11-08T11:14:21.932Z,1.05
2022-11-08T11:17:02.859Z,1.42
2022-11-08T11:19:31.530Z,1.10
2022-11-08T11:22:06.640Z,1.50
2022-11-08T11:24:36.015Z,1.13
2022-11-08T11:27:15.293Z,1.60
2022-11-08T11:29:42.098Z,1.00
2022-11-08T11:32:33.508Z,1.35
2022-11-08T11:35:06.464Z,1.10
2022-11-08T11:37:42.734Z,1.00
2022-11-08T11:40:36.953Z,0.95
2022-11-08T11:43:12.726Z,1.35
2022-11-08T11:46:10.673Z,2.15
2022-11-08T11:48:45.951Z,1.42
2022-11-08T11:51:13.873Z,1.00
2022-11-08T11:53:47.383Z,0.80
2022-11-08T11:56:31.364Z,0.68
2022-11-08T11:59:16.909Z,0.80
2022-11-08T12:02:02.699Z,0.80
2022-11-08T12:04:54.328Z,0.85
2022-11-08T12:07:29.871Z,0.85
2022-11-08T12:10:34.497Z,0.85
2022-11-08T12:13:12.079Z,0.90
2022-11-08T12:15:50.994Z,0.90
2022-11-08T12:18:59.274Z,0.73
2022-11-08T12:21:43.759Z,0.80
2022-11-08T12:24:28.644Z,0.90
2022-11-08T12:27:30.416Z,0.80
2022-11-08T12:30:11.838Z,0.82
2022-11-08T12:33:07.144Z,0.93
2022-11-08T12:35:56.901Z,1.02
2022-11-08T12:39:01.697Z,1.02
2022-11-08T12:41:44.679Z,0.80
2022-11-08T12:44:29.591Z,1.00
2022-11-08T12:47:17.425Z,1.25
2022-11-08T12:50:12.016Z,1.10
2022-11-08T12:52:47.786Z,1.60
2022-11-08T12:55:23.836Z,1.00
2022-11-08T12:57:53.520Z,0.90
2022-11-08T13:00:20.646Z,1.15
2022-11-08T13:03:16.206Z,1.10
2022-11-08T13:05:59.213Z,1.10
2022-11-08T13:08:42.630Z,1.10
2022-11-08T13:11:19.053Z,1.17
2022-11-08T13:13:53.155Z,0.95
2022-11-08T13:16:28.878Z,0.90
2022-11-08T13:19:01.390Z,0.73
2022-11-08T13:21:28.400Z,0.85
2022-11-08T13:24:43.355Z,0.70
2022-11-08T13:27:26.096Z,0.63
2022-11-08T13:29:58.338Z,0.50
2022-11-08T13:32:53.848Z,1.13
2022-11-08T13:35:37.745Z,0.70
2022-11-08T13:38:21.745Z,0.80
2022-11-08T13:41:20.675Z,0.80
2022-11-08T13:43:48.624Z,0.60
2022-11-08T13:46:27.925Z,0.57
2022-11-08T13:48:57.870Z,0.70
2022-11-08T13:51:26.194Z,0.70
2022-11-08T13:53:58.124Z,0.65
2022-11-08T13:56:45.603Z,1.10
2022-11-08T13:59:31.213Z,1.00
2022-11-08T14:02:00.814Z,0.80
2022-11-08T14:04:38.784Z,0.65
2022-11-08T14:07:25.453Z,0.60
2022-11-08T14:10:00.002Z,0.80
2022-11-08T14:12:26.930Z,0.80
2022-11-08T14:14:56.698Z,0.98
2022-11-08T14:17:49.450Z,1.25
2022-11-08T14:20:16.492Z,0.70
2022-11-08T14:22:49.870Z,0.60
2022-11-08T14:25:32.072Z,0.70
2022-11-08T14:27:59.125Z,0.90
2022-11-08T14:30:26.747Z,0.77
2022-11-08T14:33:19.725Z,1.20
2022-11-08T14:36:03.700Z,0.90
2022-11-08T14:38:34.506Z,0.90
2022-11-08T14:41:03.388Z,1.08
2022-11-08T14:43:31.501Z,0.88
2022-11-08T14:45:58.519Z,0.73
2022-11-08T14:48:29.664Z,1.00
2022-11-08T14:51:05.736Z,1.25
2022-11-08T14:53:44.073Z,0.90
2022-11-08T14:56:26.450Z,1.30
2022-11-08T14:58:55.047Z,0.85
2022-11-08T15:01:26.642Z,0.80
2022-11-08T15:03:57.870Z,0.98
2022-11-08T15:06:32.008Z,0.93
2022-11-08T15:09:00.352Z,1.02
2022-11-08T15:11:41.253Z,0.98
2022-11-08T15:14:17.499Z,1.00
2022-11-08T15:16:50.318Z,1.02
2022-11-08T15:19:30.376Z,0.95
2022-11-08T15:22:20.470Z,1.00
2022-11-08T15:24:47.335Z,1.23
2022-11-08T15:27:17.441Z,1.10
2022-11-08T15:30:09.863Z,1.23
2022-11-08T15:32:39.347Z,1.15
2022-11-08T15:35:15.690Z,1.20
2022-11-08T15:37:42.999Z,1.20
2022-11-08T15:40:22.010Z,1.50
2022-11-08T15:42:51.820Z,1.73
2022-11-08T15:45:20.606Z,1.52
2022-11-08T15:47:49.386Z,1.75
2022-11-08T15:50:20.253Z,1.40
2022-11-08T15:52:55.669Z,1.60
2022-11-08T15:55:35.669Z,1.60
2022-11-08T15:58:02.978Z,1.40
2022-11-08T16:05:09.832Z,2.15
2022-11-08T16:08:19.803Z,2.22
2022-11-08T16:32:22.895Z,2.58
2022-11-08T16:39:44.319Z,2.17
2022-11-08T16:44:00.947Z,2.00
2022-11-08T16:50:27.019Z,1.55
2022-11-08T16:53:56.713Z,1.52
2022-11-08T17:12:50.081Z,1.65
2022-11-08T17:19:41.012Z,2.55
2022-11-08T17:26:32.928Z,8.98
2022-11-08T18:24:50.057Z,2.50
2022-11-08T18:31:44.009Z,3.17
2022-11-08T18:45:47.970Z,3.97
2022-11-08T19:08:12.048Z,3.90
2022-11-08T19:34:11.359Z,2.27
2022-11-08T19:42:00.129Z,2.30
2022-11-08T20:05:13.543Z,2.17
2022-11-08T20:39:45.454Z,3.00
2022-11-08T20:51:08.751Z,2.00
2022-11-08T21:03:58.662Z,1.90
2022-11-08T21:06:27.359Z,1.88
2022-11-08T21:08:59.904Z,2.03
2022-11-08T21:11:30.261Z,1.83
2022-11-08T21:13:57.840Z,2.28
2022-11-08T21:16:30.586Z,2.28
2022-11-08T21:18:59.051Z,2.10
2022-11-08T21:21:26.536Z,2.00
2022-11-08T21:23:54.449Z,2.20
2022-11-08T21:26:22.283Z,2.28
2022-11-08T21:28:49.234Z,2.38
2022-11-08T21:31:16.240Z,2.50
2022-11-08T21:33:43.261Z,2.67
2022-11-08T21:36:10.493Z,2.63
2022-11-08T21:38:39.060Z,2.50
2022-11-08T21:41:09.083Z,2.50
2022-11-08T21:43:37.672Z,2.80
2022-11-08T21:46:17.657Z,2.63
2022-11-08T21:48:44.811Z,3.13
2022-11-08T21:51:11.732Z,3.05
2022-11-08T21:53:46.982Z,3.33
2022-11-08T21:56:19.697Z,4.13
2022-11-08T21:58:46.485Z,3.92
2022-11-08T22:01:13.661Z,3.38
2022-11-08T22:03:40.701Z,4.05
2022-11-08T22:06:07.647Z,4.22
2022-11-08T22:08:34.628Z,4.65
2022-11-08T22:11:01.589Z,3.38
2022-11-08T22:13:28.364Z,3.53
2022-11-08T22:15:55.440Z,3.53
2022-11-08T22:18:37.030Z,3.45
2022-11-08T22:21:27.896Z,3.78
2022-11-08T22:23:54.738Z,4.22
2022-11-08T22:26:21.540Z,4.00
2022-11-08T22:28:48.378Z,3.55
2022-11-08T22:31:15.188Z,2.80
2022-11-08T22:33:41.963Z,3.63
2022-11-08T22:36:09.091Z,2.90
2022-11-08T22:38:36.102Z,2.80
2022-11-08T22:41:03.292Z,2.55
2022-11-08T22:43:30.729Z,2.78
2022-11-08T22:45:57.553Z,2.45
2022-11-08T22:48:24.625Z,2.63
2022-11-08T22:50:52.927Z,2.55
2022-11-08T22:53:23.243Z,2.63
2022-11-08T22:55:50.140Z,2.78
2022-11-08T22:58:17.026Z,2.92
2022-11-08T23:00:43.957Z,2.70
2022-11-08T23:03:10.790Z,2.45
2022-11-08T23:05:37.568Z,2.47
2022-11-08T23:08:04.812Z,2.40
2022-11-08T23:10:31.577Z,2.55
2022-11-08T23:13:17.166Z,2.47
2022-11-08T23:16:02.803Z,2.85
2022-11-08T23:18:29.616Z,2.40
2022-11-08T23:21:14.999Z,2.70
2022-11-08T23:24:00.498Z,2.72
2022-11-08T23:26:46.343Z,2.45
2022-11-08T23:29:31.661Z,2.50
2022-11-08T23:31:58.416Z,2.38
2022-11-08T23:34:25.131Z,2.22
2022-11-08T23:36:51.933Z,2.88
2022-11-08T23:39:18.817Z,2.80
2022-11-08T23:42:04.271Z,2.38
2022-11-08T23:44:31.023Z,2.30
2022-11-08T23:46:59.923Z,2.15
2022-11-08T23:49:27.443Z,2.58
2022-11-08T23:51:54.704Z,2.40
2022-11-08T23:54:21.978Z,2.33
2022-11-08T23:56:48.975Z,2.05
2022-11-08T23:59:16.349Z,2.28
